createdAt,value
2017-08-27T00:00:30.486Z,1007.42
2017-08-27T00:01:10.947Z,1007.43
2017-08-27T00:01:51.371Z,1007.44
2017-08-27T00:02:31.739Z,1007.41
2017-08-27T00:03:12.103Z,1007.4
2017-08-27T00:03:52.511Z,1007.42
2017-08-27T00:04:32.914Z,1007.4
2017-08-27T00:05:13.336Z,1007.42
2017-08-27T00:05:53.716Z,1007.41
2017-08-27T00:06:34.127Z,1007.37
2017-08-27T00:07:14.575Z,1007.41
2017-08-27T00:07:54.909Z,1007.38
2017-08-27T00:08:35.352Z,1007.42
2017-08-27T00:09:15.738Z,1007.43
2017-08-27T00:09:56.135Z,1007.39
2017-08-27T00:10:36.599Z,1007.37
2017-08-27T00:11:17.033Z,1007.35
2017-08-27T00:11:57.339Z,1007.37
2017-08-27T00:12:37.838Z,1007.36
2017-08-27T00:13:18.299Z,1007.35
2017-08-27T00:13:58.735Z,1007.4
2017-08-27T00:14:39.163Z,1007.36
2017-08-27T00:15:19.516Z,1007.41
2017-08-27T00:15:59.985Z,1007.4
2017-08-27T00:16:40.384Z,1007.46
2017-08-27T00:17:20.824Z,1007.4
2017-08-27T00:18:01.206Z,1007.38
2017-08-27T00:18:41.574Z,1007.38
2017-08-27T00:19:21.970Z,1007.39
2017-08-27T00:20:02.380Z,1007.34
2017-08-27T00:20:42.791Z,1007.36
2017-08-27T00:21:23.182Z,1007.37
2017-08-27T00:22:03.554Z,1007.4
2017-08-27T00:22:43.995Z,1007.4
2017-08-27T00:23:24.422Z,1007.4
2017-08-27T00:24:04.866Z,1007.43
2017-08-27T00:24:45.226Z,1007.47
2017-08-27T00:25:25.623Z,1007.46
2017-08-27T00:26:06.033Z,1007.44
2017-08-27T00:26:46.435Z,1007.5
2017-08-27T00:27:26.875Z,1007.5
2017-08-27T00:28:07.257Z,1007.49
2017-08-27T00:28:47.681Z,1007.47
2017-08-27T00:29:28.080Z,1007.47
2017-08-27T00:30:08.470Z,1007.51
2017-08-27T00:30:48.936Z,1007.54
2017-08-27T00:31:29.372Z,1007.54
2017-08-27T00:32:09.813Z,1007.53
2017-08-27T00:32:50.251Z,1007.53
2017-08-27T00:33:30.605Z,1007.51
2017-08-27T00:34:11.029Z,1007.57
2017-08-27T00:34:51.408Z,1007.56
2017-08-27T00:35:31.773Z,1007.53
2017-08-27T00:36:12.236Z,1007.51
2017-08-27T00:36:52.659Z,1007.51
2017-08-27T00:37:32.988Z,1007.5
2017-08-27T00:38:13.394Z,1007.51
2017-08-27T00:38:53.830Z,1007.53
2017-08-27T00:39:34.232Z,1007.51
2017-08-27T00:40:14.630Z,1007.5
2017-08-27T00:40:55.036Z,1007.51
2017-08-27T00:41:35.458Z,1007.54
2017-08-27T00:42:15.917Z,1007.53
2017-08-27T00:42:56.273Z,1007.51
2017-08-27T00:43:36.692Z,1007.51
2017-08-27T00:44:17.141Z,1007.49
2017-08-27T00:44:57.563Z,1007.59
2017-08-27T00:45:38.011Z,1007.57
2017-08-27T00:46:18.407Z,1007.6
2017-08-27T00:46:58.860Z,1007.6
2017-08-27T00:47:39.251Z,1007.59
2017-08-27T00:48:19.648Z,1007.61
2017-08-27T00:49:00.168Z,1007.61
2017-08-27T00:49:40.536Z,1007.57
2017-08-27T00:50:20.908Z,1007.6
2017-08-27T00:51:01.346Z,1007.54
2017-08-27T00:51:41.757Z,1007.6
2017-08-27T00:52:22.267Z,1007.6
2017-08-27T00:53:02.593Z,1007.65
2017-08-27T00:53:43.074Z,1007.65
2017-08-27T00:54:23.477Z,1007.64
2017-08-27T00:55:03.868Z,1007.65
2017-08-27T00:55:44.355Z,1007.64
2017-08-27T00:56:24.757Z,1007.63
2017-08-27T00:57:05.189Z,1007.67
2017-08-27T00:57:45.634Z,1007.62
2017-08-27T00:58:26.078Z,1007.62
2017-08-27T00:59:06.417Z,1007.64
2017-08-27T00:59:46.835Z,1007.63
2017-08-27T01:00:27.221Z,1007.59
2017-08-27T01:01:07.684Z,1007.58
2017-08-27T01:01:48.133Z,1007.55
2017-08-27T01:02:28.530Z,1007.57
2017-08-27T01:03:08.937Z,1007.56
2017-08-27T01:03:49.377Z,1007.54
2017-08-27T01:04:29.779Z,1007.53
2017-08-27T01:05:10.201Z,1007.57
2017-08-27T01:05:50.540Z,1007.56
2017-08-27T01:06:30.998Z,1007.54
2017-08-27T01:07:11.462Z,1007.53
2017-08-27T01:07:51.950Z,1007.5
2017-08-27T01:08:32.288Z,1007.5
2017-08-27T01:09:12.709Z,1007.43
2017-08-27T01:09:53.161Z,1007.44
2017-08-27T01:10:33.563Z,1007.37
2017-08-27T01:11:14.075Z,1007.34
2017-08-27T01:11:54.447Z,1007.35
2017-08-27T01:12:34.920Z,1007.38
2017-08-27T01:13:15.321Z,1007.34
2017-08-27T01:13:55.681Z,1007.34
2017-08-27T01:14:36.168Z,1007.33
2017-08-27T01:15:16.579Z,1007.37
2017-08-27T01:15:57.012Z,1007.36
2017-08-27T01:16:37.467Z,1007.35
2017-08-27T01:17:17.859Z,1007.39
2017-08-27T01:17:58.263Z,1007.38
2017-08-27T01:18:38.805Z,1007.39
2017-08-27T01:19:19.191Z,1007.36
2017-08-27T01:19:59.708Z,1007.38
2017-08-27T01:20:40.085Z,1007.39
2017-08-27T01:21:20.439Z,1007.33
2017-08-27T01:22:00.914Z,1007.39
2017-08-27T01:22:41.370Z,1007.4
2017-08-27T01:23:21.774Z,1007.41
2017-08-27T01:24:02.152Z,1007.45
2017-08-27T01:24:42.563Z,1007.5
2017-08-27T01:25:22.984Z,1007.49
2017-08-27T01:26:03.392Z,1007.54
2017-08-27T01:26:43.798Z,1007.54
2017-08-27T01:27:24.312Z,1007.58
2017-08-27T01:28:04.691Z,1007.56
2017-08-27T01:28:45.030Z,1007.56
2017-08-27T01:29:25.486Z,1007.59
2017-08-27T01:30:05.828Z,1007.58
2017-08-27T01:30:46.204Z,1007.6
2017-08-27T01:31:26.655Z,1007.59
2017-08-27T01:32:07.093Z,1007.64
2017-08-27T01:32:47.543Z,1007.61
2017-08-27T01:33:27.917Z,1007.68
2017-08-27T01:34:08.347Z,1007.67
2017-08-27T01:34:48.658Z,1007.67
2017-08-27T01:35:29.122Z,1007.68
2017-08-27T01:36:09.551Z,1007.68
2017-08-27T01:36:49.935Z,1007.69
2017-08-27T01:37:30.367Z,1007.72
2017-08-27T01:38:10.825Z,1007.69
2017-08-27T01:38:51.283Z,1007.71
2017-08-27T01:39:31.680Z,1007.72
2017-08-27T01:40:12.201Z,1007.68
2017-08-27T01:40:52.517Z,1007.7
2017-08-27T01:41:32.934Z,1007.72
2017-08-27T01:42:13.370Z,1007.67
2017-08-27T01:42:53.712Z,1007.68
2017-08-27T01:43:34.168Z,1007.69
2017-08-27T01:44:14.547Z,1007.71
2017-08-27T01:44:54.941Z,1007.71
2017-08-27T01:45:35.446Z,1007.71
2017-08-27T01:46:15.873Z,1007.72
2017-08-27T01:46:56.291Z,1007.75
2017-08-27T01:47:36.707Z,1007.76
2017-08-27T01:48:17.123Z,1007.77
2017-08-27T01:48:57.471Z,1007.7
2017-08-27T01:49:37.962Z,1007.73
2017-08-27T01:50:18.328Z,1007.75
2017-08-27T01:50:58.732Z,1007.74
2017-08-27T01:51:39.134Z,1007.75
2017-08-27T01:52:19.527Z,1007.77
2017-08-27T01:52:59.911Z,1007.79
2017-08-27T01:53:40.300Z,1007.78
2017-08-27T01:54:20.822Z,1007.79
2017-08-27T01:55:01.214Z,1007.77
2017-08-27T01:55:41.647Z,1007.78
2017-08-27T01:56:22.113Z,1007.83
2017-08-27T01:57:02.474Z,1007.78
2017-08-27T01:57:42.768Z,1007.81
2017-08-27T01:58:23.253Z,1007.82
2017-08-27T01:59:03.687Z,1007.83
2017-08-27T01:59:44.067Z,1007.85
2017-08-27T02:00:24.454Z,1007.87
2017-08-27T02:01:04.809Z,1007.88
2017-08-27T02:01:45.232Z,1007.89
2017-08-27T02:02:25.613Z,1007.92
2017-08-27T02:03:06.068Z,1007.92
2017-08-27T02:03:46.451Z,1007.92
2017-08-27T02:04:26.804Z,1007.92
2017-08-27T02:05:07.230Z,1007.94
2017-08-27T02:05:47.659Z,1007.94
2017-08-27T02:06:28.118Z,1007.93
2017-08-27T02:07:08.489Z,1007.92
2017-08-27T02:07:48.944Z,1007.91
2017-08-27T02:08:29.350Z,1007.94
2017-08-27T02:09:09.708Z,1007.94
2017-08-27T02:09:50.228Z,1007.91
2017-08-27T02:10:30.579Z,1007.91
2017-08-27T02:11:11.019Z,1007.92
2017-08-27T02:11:51.397Z,1007.9
2017-08-27T02:12:31.804Z,1007.91
2017-08-27T02:13:12.213Z,1007.9
2017-08-27T02:13:52.703Z,1007.87
2017-08-27T02:14:33.034Z,1007.87
2017-08-27T02:15:13.469Z,1007.87
2017-08-27T02:15:53.860Z,1007.83
2017-08-27T02:16:34.309Z,1007.83
2017-08-27T02:17:14.749Z,1007.84
2017-08-27T02:17:55.148Z,1007.83
2017-08-27T02:18:35.639Z,1007.79
2017-08-27T02:19:16.057Z,1007.83
2017-08-27T02:19:56.453Z,1007.77
2017-08-27T02:20:36.848Z,1007.8
2017-08-27T02:21:17.296Z,1007.8
2017-08-27T02:21:57.642Z,1007.79
2017-08-27T02:22:38.060Z,1007.79
2017-08-27T02:23:18.471Z,1007.78
2017-08-27T02:23:58.874Z,1007.74
2017-08-27T02:24:39.247Z,1007.77
2017-08-27T02:25:19.723Z,1007.76
2017-08-27T02:26:00.129Z,1007.79
2017-08-27T02:26:40.516Z,1007.79
2017-08-27T02:27:20.937Z,1007.83
2017-08-27T02:28:01.334Z,1007.8
2017-08-27T02:28:41.762Z,1007.82
2017-08-27T02:29:22.116Z,1007.81
2017-08-27T02:30:02.568Z,1007.81
2017-08-27T02:30:42.906Z,1007.82
2017-08-27T02:31:23.354Z,1007.76
2017-08-27T02:32:03.747Z,1007.79
2017-08-27T02:32:44.136Z,1007.75
2017-08-27T02:33:24.557Z,1007.77
2017-08-27T02:34:04.958Z,1007.74
2017-08-27T02:34:45.345Z,1007.73
2017-08-27T02:35:25.733Z,1007.73
2017-08-27T02:36:06.132Z,1007.72
2017-08-27T02:36:46.573Z,1007.68
2017-08-27T02:37:26.943Z,1007.69
2017-08-27T02:38:07.398Z,1007.7
2017-08-27T02:38:47.781Z,1007.65
2017-08-27T02:39:28.281Z,1007.7
2017-08-27T02:40:08.623Z,1007.66
2017-08-27T02:40:49.073Z,1007.68
2017-08-27T02:41:29.463Z,1007.67
2017-08-27T02:42:09.860Z,1007.64
2017-08-27T02:42:50.318Z,1007.68
2017-08-27T02:43:30.723Z,1007.67
2017-08-27T02:44:11.093Z,1007.68
2017-08-27T02:44:51.481Z,1007.68
2017-08-27T02:45:31.944Z,1007.7
2017-08-27T02:46:12.355Z,1007.71
2017-08-27T02:46:52.832Z,1007.72
2017-08-27T02:47:33.183Z,1007.72
2017-08-27T02:50:17.388Z,1007.62
2017-08-27T02:51:01.388Z,1007.71
2017-08-27T02:51:41.809Z,1007.7
2017-08-27T02:52:22.259Z,1007.71
2017-08-27T02:53:02.623Z,1007.69
2017-08-27T02:53:43.030Z,1007.71
2017-08-27T02:54:23.393Z,1007.68
2017-08-27T02:55:03.820Z,1007.68
2017-08-27T02:55:44.253Z,1007.65
2017-08-27T02:56:24.782Z,1007.68
2017-08-27T02:57:05.166Z,1007.7
2017-08-27T02:57:45.546Z,1007.69
2017-08-27T02:58:25.948Z,1007.72
2017-08-27T02:59:06.344Z,1007.69
2017-08-27T02:59:46.729Z,1007.68
2017-08-27T03:00:27.133Z,1007.68
2017-08-27T03:01:07.550Z,1007.74
2017-08-27T03:01:48.064Z,1007.71
2017-08-27T03:02:28.424Z,1007.71
2017-08-27T03:03:08.866Z,1007.74
2017-08-27T03:03:49.238Z,1007.75
2017-08-27T03:04:29.616Z,1007.7
2017-08-27T03:05:10.105Z,1007.7
2017-08-27T03:05:50.477Z,1007.71
2017-08-27T03:06:30.893Z,1007.7
2017-08-27T03:07:11.296Z,1007.69
2017-08-27T03:07:51.778Z,1007.67
2017-08-27T03:08:32.158Z,1007.68
2017-08-27T03:09:12.509Z,1007.64
2017-08-27T03:09:52.882Z,1007.65
2017-08-27T03:10:33.359Z,1007.66
2017-08-27T03:11:13.745Z,1007.62
2017-08-27T03:11:54.126Z,1007.62
2017-08-27T03:12:34.622Z,1007.61
2017-08-27T03:13:14.924Z,1007.58
2017-08-27T03:13:55.402Z,1007.59
2017-08-27T03:14:35.830Z,1007.58
2017-08-27T03:15:16.170Z,1007.59
2017-08-27T03:15:56.503Z,1007.59
2017-08-27T03:16:36.915Z,1007.58
2017-08-27T03:17:17.366Z,1007.61
2017-08-27T03:17:57.803Z,1007.6
2017-08-27T03:18:38.195Z,1007.57
2017-08-27T03:19:18.564Z,1007.54
2017-08-27T03:19:59.026Z,1007.53
2017-08-27T03:20:39.414Z,1007.55
2017-08-27T03:21:19.985Z,1007.47
2017-08-27T03:22:00.409Z,1007.49
2017-08-27T03:22:40.759Z,1007.46
2017-08-27T03:23:21.144Z,1007.44
2017-08-27T03:24:01.615Z,1007.45
2017-08-27T03:24:41.969Z,1007.44
2017-08-27T03:25:22.408Z,1007.43
2017-08-27T03:26:02.769Z,1007.46
2017-08-27T03:26:43.156Z,1007.43
2017-08-27T03:27:23.611Z,1007.49
2017-08-27T03:28:04.032Z,1007.49
2017-08-27T03:28:44.401Z,1007.57
2017-08-27T03:29:24.820Z,1007.55
2017-08-27T03:30:05.187Z,1007.56
2017-08-27T03:30:45.676Z,1007.57
2017-08-27T03:31:26.068Z,1007.62
2017-08-27T03:32:06.451Z,1007.62
2017-08-27T03:32:46.949Z,1007.6
2017-08-27T03:33:27.239Z,1007.61
2017-08-27T03:34:07.717Z,1007.61
2017-08-27T03:34:48.105Z,1007.59
2017-08-27T03:35:28.504Z,1007.57
2017-08-27T03:36:08.908Z,1007.65
2017-08-27T03:36:49.360Z,1007.66
2017-08-27T03:37:29.720Z,1007.68
2017-08-27T03:38:10.109Z,1007.7
2017-08-27T03:38:50.480Z,1007.64
2017-08-27T03:39:30.882Z,1007.65
2017-08-27T03:40:11.322Z,1007.66
2017-08-27T03:40:51.768Z,1007.67
2017-08-27T03:41:32.261Z,1007.64
2017-08-27T03:42:12.530Z,1007.64
2017-08-27T03:42:52.958Z,1007.66
2017-08-27T03:43:33.362Z,1007.7
2017-08-27T03:44:13.756Z,1007.67
2017-08-27T03:44:54.141Z,1007.66
2017-08-27T03:45:34.586Z,1007.65
2017-08-27T03:46:15.006Z,1007.64
2017-08-27T03:46:55.366Z,1007.68
2017-08-27T03:47:35.817Z,1007.63
2017-08-27T03:48:16.156Z,1007.68
2017-08-27T03:48:56.587Z,1007.65
2017-08-27T03:49:36.962Z,1007.67
2017-08-27T03:50:17.381Z,1007.66
2017-08-27T03:50:57.847Z,1007.69
2017-08-27T03:51:38.210Z,1007.71
2017-08-27T03:52:18.625Z,1007.69
2017-08-27T03:52:59.034Z,1007.71
2017-08-27T03:53:39.453Z,1007.69
2017-08-27T03:54:19.875Z,1007.74
2017-08-27T03:55:00.246Z,1007.76
2017-08-27T03:55:40.650Z,1007.75
2017-08-27T03:56:21.019Z,1007.75
2017-08-27T03:57:01.399Z,1007.76
2017-08-27T03:57:41.843Z,1007.83
2017-08-27T03:58:22.202Z,1007.8
2017-08-27T03:59:02.613Z,1007.81
2017-08-27T03:59:43.040Z,1007.86
2017-08-27T04:00:23.430Z,1007.87
2017-08-27T04:01:03.857Z,1007.83
2017-08-27T04:01:44.223Z,1007.87
2017-08-27T04:02:24.653Z,1007.87
2017-08-27T04:03:05.072Z,1007.89
2017-08-27T04:03:45.444Z,1007.87
2017-08-27T04:04:25.880Z,1007.89
2017-08-27T04:05:06.223Z,1007.88
2017-08-27T04:05:46.678Z,1007.89
2017-08-27T04:06:27.047Z,1007.91
2017-08-27T04:07:07.410Z,1007.93
2017-08-27T04:07:47.925Z,1007.93
2017-08-27T04:08:28.266Z,1007.96
2017-08-27T04:09:08.670Z,1007.96
2017-08-27T04:09:49.104Z,1007.95
2017-08-27T04:10:29.529Z,1008.02
2017-08-27T04:11:09.914Z,1008
2017-08-27T04:11:50.302Z,1008.02
2017-08-27T04:12:30.684Z,1008.03
2017-08-27T04:13:11.092Z,1008.05
2017-08-27T04:13:51.533Z,1008.06
2017-08-27T04:14:31.964Z,1008.04
2017-08-27T04:15:12.337Z,1008.04
2017-08-27T04:15:52.819Z,1008.05
2017-08-27T04:16:33.237Z,1008.07
2017-08-27T04:17:13.656Z,1008.04
2017-08-27T04:17:54.051Z,1008.06
2017-08-27T04:18:34.439Z,1008.02
2017-08-27T04:19:14.842Z,1007.99
2017-08-27T04:19:55.287Z,1008
2017-08-27T04:20:35.650Z,1008.02
2017-08-27T04:21:16.070Z,1008.02
2017-08-27T04:21:56.453Z,1008
2017-08-27T04:22:36.877Z,1007.97
2017-08-27T04:23:17.345Z,1007.99
2017-08-27T04:23:57.729Z,1007.97
2017-08-27T04:24:38.111Z,1007.98
2017-08-27T04:25:18.580Z,1007.98
2017-08-27T04:25:58.956Z,1007.96
2017-08-27T04:26:39.421Z,1007.94
2017-08-27T04:27:19.792Z,1007.98
2017-08-27T04:28:00.200Z,1007.95
2017-08-27T04:28:40.603Z,1007.98
2017-08-27T04:29:21.058Z,1008.01
2017-08-27T04:30:01.444Z,1008.03
2017-08-27T04:30:41.836Z,1008.01
2017-08-27T04:31:22.295Z,1008.05
2017-08-27T04:32:02.660Z,1008.1
2017-08-27T04:32:43.008Z,1008.11
2017-08-27T04:33:23.440Z,1008.11
2017-08-27T04:34:03.961Z,1008.13
2017-08-27T04:34:44.366Z,1008.11
2017-08-27T04:35:24.710Z,1008.09
2017-08-27T04:36:05.116Z,1008.15
2017-08-27T04:36:45.587Z,1008.13
2017-08-27T04:37:25.965Z,1008.14
2017-08-27T04:38:06.300Z,1008.14
2017-08-27T04:38:46.718Z,1008.17
2017-08-27T04:39:27.139Z,1008.14
2017-08-27T04:40:07.498Z,1008.17
2017-08-27T04:40:47.933Z,1008.15
2017-08-27T04:41:28.315Z,1008.17
2017-08-27T04:42:08.666Z,1008.18
2017-08-27T04:42:49.071Z,1008.17
2017-08-27T04:43:29.619Z,1008.16
2017-08-27T04:44:09.977Z,1008.17
2017-08-27T04:44:50.409Z,1008.12
2017-08-27T04:45:30.862Z,1008.11
2017-08-27T04:46:11.193Z,1008.07
2017-08-27T04:46:51.681Z,1008.11
2017-08-27T04:47:32.068Z,1008.11
2017-08-27T04:48:12.515Z,1008.1
2017-08-27T04:48:52.991Z,1008.14
2017-08-27T04:49:33.356Z,1008.1
2017-08-27T04:50:13.760Z,1008.11
2017-08-27T04:50:54.270Z,1008.1
2017-08-27T04:51:34.691Z,1008.11
2017-08-27T04:52:15.034Z,1008.12
2017-08-27T04:52:55.499Z,1008.16
2017-08-27T04:53:35.969Z,1008.16
2017-08-27T04:54:16.300Z,1008.15
2017-08-27T04:54:56.800Z,1008.22
2017-08-27T04:55:37.247Z,1008.2
2017-08-27T04:56:17.638Z,1008.23
2017-08-27T04:56:58.106Z,1008.24
2017-08-27T04:57:38.491Z,1008.21
2017-08-27T04:58:18.966Z,1008.23
2017-08-27T04:58:59.464Z,1008.25
2017-08-27T04:59:39.919Z,1008.22
2017-08-27T05:00:20.360Z,1008.22
2017-08-27T05:01:00.776Z,1008.23
2017-08-27T05:01:41.208Z,1008.25
2017-08-27T05:02:21.703Z,1008.26
2017-08-27T05:03:02.246Z,1008.28
2017-08-27T05:03:42.678Z,1008.32
2017-08-27T05:04:23.061Z,1008.3
2017-08-27T05:05:03.422Z,1008.32
2017-08-27T05:05:43.821Z,1008.31
2017-08-27T05:06:24.203Z,1008.33
2017-08-27T05:07:04.699Z,1008.35
2017-08-27T05:07:45.241Z,1008.32
2017-08-27T05:08:25.642Z,1008.39
2017-08-27T05:09:05.974Z,1008.37
2017-08-27T05:09:46.449Z,1008.35
2017-08-27T05:10:26.794Z,1008.36
2017-08-27T05:11:07.283Z,1008.36
2017-08-27T05:11:47.725Z,1008.3
2017-08-27T05:12:28.112Z,1008.31
2017-08-27T05:13:08.451Z,1008.29
2017-08-27T05:13:48.866Z,1008.29
2017-08-27T05:14:29.238Z,1008.32
2017-08-27T05:15:09.708Z,1008.27
2017-08-27T05:15:50.050Z,1008.29
2017-08-27T05:16:30.505Z,1008.28
2017-08-27T05:17:11.047Z,1008.25
2017-08-27T05:17:51.391Z,1008.26
2017-08-27T05:20:14.341Z,1008.25
2017-08-27T05:20:54.715Z,1008.23
2017-08-27T05:21:35.169Z,1008.21
2017-08-27T05:22:15.598Z,1008.2
2017-08-27T05:22:55.930Z,1008.15
2017-08-27T05:23:36.377Z,1008.18
2017-08-27T05:24:16.781Z,1008.14
2017-08-27T05:24:57.206Z,1008.18
2017-08-27T05:25:37.600Z,1008.18
2017-08-27T05:26:18.085Z,1008.21
2017-08-27T05:26:58.520Z,1008.22
2017-08-27T05:27:38.886Z,1008.24
2017-08-27T05:28:19.373Z,1008.23
2017-08-27T05:32:57.536Z,1008.31
2017-08-27T05:34:00.769Z,1008.3
2017-08-27T05:35:05.349Z,1008.3
2017-08-27T05:36:02.820Z,1008.3
2017-08-27T05:36:47.399Z,1008.27
2017-08-27T05:37:27.763Z,1008.3
2017-08-27T05:38:08.200Z,1008.27
2017-08-27T05:38:48.533Z,1008.29
2017-08-27T05:39:29.000Z,1008.27
2017-08-27T05:40:09.358Z,1008.26
2017-08-27T05:40:49.777Z,1008.3
2017-08-27T05:41:30.247Z,1008.23
2017-08-27T05:42:10.610Z,1008.25
2017-08-27T05:42:51.081Z,1008.22
2017-08-27T05:43:31.690Z,1008.22
2017-08-27T05:44:12.079Z,1008.21
2017-08-27T05:44:52.507Z,1008.24
2017-08-27T05:45:32.940Z,1008.22
2017-08-27T05:46:13.337Z,1008.2
2017-08-27T05:46:53.738Z,1008.17
2017-08-27T05:52:03.496Z,1008.29
2017-08-27T05:53:02.817Z,1008.28
2017-08-27T05:53:41.618Z,1008.29
2017-08-27T05:54:21.952Z,1008.31
2017-08-27T05:55:02.402Z,1008.28
2017-08-27T05:55:42.756Z,1008.31
2017-08-27T05:56:23.134Z,1008.32
2017-08-27T05:57:03.624Z,1008.35
2017-08-27T05:57:43.974Z,1008.31
2017-08-27T05:58:24.330Z,1008.36
2017-08-27T05:59:04.772Z,1008.37
2017-08-27T05:59:45.138Z,1008.33
2017-08-27T06:00:25.553Z,1008.38
2017-08-27T06:01:06.018Z,1008.35
2017-08-27T06:01:46.432Z,1008.39
2017-08-27T06:02:26.822Z,1008.39
2017-08-27T06:03:07.185Z,1008.36
2017-08-27T06:03:47.534Z,1008.37
2017-08-27T06:04:28.013Z,1008.41
2017-08-27T06:05:08.415Z,1008.43
2017-08-27T06:05:48.771Z,1008.46
2017-08-27T06:06:29.196Z,1008.45
2017-08-27T06:07:09.607Z,1008.49
2017-08-27T06:07:50.000Z,1008.52
2017-08-27T06:08:30.437Z,1008.53
2017-08-27T06:09:10.859Z,1008.55
2017-08-27T06:09:51.261Z,1008.54
2017-08-27T06:10:31.648Z,1008.58
2017-08-27T06:11:12.021Z,1008.59
2017-08-27T06:11:52.433Z,1008.6
2017-08-27T06:12:32.830Z,1008.59
2017-08-27T06:13:13.323Z,1008.61
2017-08-27T06:13:53.766Z,1008.61
2017-08-27T06:14:34.279Z,1008.65
2017-08-27T06:15:14.787Z,1008.62
2017-08-27T06:15:55.193Z,1008.68
2017-08-27T06:16:35.612Z,1008.66
2017-08-27T06:17:16.074Z,1008.67
2017-08-27T06:17:56.521Z,1008.71
2017-08-27T06:18:36.884Z,1008.67
2017-08-27T06:19:17.336Z,1008.72
2017-08-27T06:19:57.813Z,1008.68
2017-08-27T06:20:38.162Z,1008.7
2017-08-27T06:21:18.630Z,1008.73
2017-08-27T06:21:59.040Z,1008.71
2017-08-27T06:22:39.503Z,1008.75
2017-08-27T06:23:19.910Z,1008.75
2017-08-27T06:24:00.347Z,1008.73
2017-08-27T06:24:40.771Z,1008.77
2017-08-27T06:27:13.308Z,1008.71
2017-08-27T06:27:53.708Z,1008.73
2017-08-27T06:28:34.113Z,1008.74
2017-08-27T06:29:14.535Z,1008.79
2017-08-27T06:29:55.006Z,1008.75
2017-08-27T06:30:35.434Z,1008.8
2017-08-27T06:31:15.777Z,1008.81
2017-08-27T06:31:56.300Z,1008.78
2017-08-27T06:32:36.685Z,1008.79
2017-08-27T06:33:17.095Z,1008.77
2017-08-27T06:33:57.513Z,1008.79
2017-08-27T06:34:37.967Z,1008.75
2017-08-27T06:35:18.464Z,1008.78
2017-08-27T06:35:58.839Z,1008.74
2017-08-27T06:36:39.248Z,1008.76
2017-08-27T06:37:19.688Z,1008.74
2017-08-27T06:38:00.146Z,1008.77
2017-08-27T06:38:40.517Z,1008.77
2017-08-27T06:39:20.951Z,1008.78
2017-08-27T06:40:01.383Z,1008.78
2017-08-27T06:40:41.834Z,1008.79
2017-08-27T06:41:22.218Z,1008.82
2017-08-27T06:42:02.729Z,1008.84
2017-08-27T06:42:43.185Z,1008.83
2017-08-27T06:43:23.585Z,1008.84
2017-08-27T06:44:03.929Z,1008.85
2017-08-27T06:44:44.419Z,1008.87
2017-08-27T06:45:24.808Z,1008.85
2017-08-27T06:46:05.250Z,1008.9
2017-08-27T06:46:45.661Z,1008.88
2017-08-27T06:47:26.048Z,1008.9
2017-08-27T06:48:06.423Z,1008.87
2017-08-27T06:48:46.789Z,1008.89
2017-08-27T06:49:27.255Z,1008.86
2017-08-27T06:50:07.696Z,1008.84
2017-08-27T06:50:48.123Z,1008.86
2017-08-27T06:51:28.554Z,1008.87
2017-08-27T06:52:08.940Z,1008.86
2017-08-27T06:52:49.341Z,1008.91
2017-08-27T06:53:29.830Z,1008.9
2017-08-27T06:54:10.230Z,1008.91
2017-08-27T06:54:50.648Z,1008.95
2017-08-27T06:55:31.109Z,1008.96
2017-08-27T06:56:11.518Z,1008.95
2017-08-27T06:56:51.877Z,1008.93
2017-08-27T06:57:32.314Z,1008.92
2017-08-27T06:58:12.665Z,1008.92
2017-08-27T06:58:53.058Z,1008.92
2017-08-27T06:59:33.427Z,1008.93
2017-08-27T07:00:13.865Z,1008.95
2017-08-27T07:00:54.267Z,1008.95
2017-08-27T07:01:34.718Z,1008.94
2017-08-27T07:02:15.179Z,1008.95
2017-08-27T07:02:55.549Z,1008.97
2017-08-27T07:03:35.921Z,1008.94
2017-08-27T07:04:16.346Z,1008.94
2017-08-27T07:04:56.711Z,1008.92
2017-08-27T07:05:37.189Z,1008.93
2017-08-27T07:06:17.612Z,1008.98
2017-08-27T07:06:57.984Z,1009.01
2017-08-27T07:07:38.420Z,1009.05
2017-08-27T07:08:18.877Z,1009.06
2017-08-27T07:08:59.332Z,1009.05
2017-08-27T07:09:39.768Z,1009.06
2017-08-27T07:10:20.165Z,1009.08
2017-08-27T07:11:00.556Z,1009.1
2017-08-27T07:11:41.012Z,1009.1
2017-08-27T07:12:21.440Z,1009.14
2017-08-27T07:13:01.819Z,1009.19
2017-08-27T07:13:42.208Z,1009.16
2017-08-27T07:14:22.631Z,1009.14
2017-08-27T07:15:03.147Z,1009.14
2017-08-27T07:15:43.516Z,1009.15
2017-08-27T07:16:23.881Z,1009.17
2017-08-27T07:17:04.253Z,1009.2
2017-08-27T07:17:44.713Z,1009.2
2017-08-27T07:18:25.200Z,1009.19
2017-08-27T07:19:05.632Z,1009.23
2017-08-27T07:19:45.994Z,1009.25
2017-08-27T07:20:26.540Z,1009.21
2017-08-27T07:21:06.982Z,1009.27
2017-08-27T07:21:47.480Z,1009.23
2017-08-27T07:22:27.869Z,1009.26
2017-08-27T07:23:08.346Z,1009.25
2017-08-27T07:23:48.740Z,1009.21
2017-08-27T07:24:29.112Z,1009.19
2017-08-27T07:25:09.578Z,1009.2
2017-08-27T07:25:50.022Z,1009.21
2017-08-27T07:26:30.425Z,1009.22
2017-08-27T07:27:10.829Z,1009.23
2017-08-27T07:27:51.226Z,1009.23
2017-08-27T07:28:31.743Z,1009.24
2017-08-27T07:29:12.157Z,1009.24
2017-08-27T07:29:52.620Z,1009.23
2017-08-27T07:30:33.015Z,1009.25
2017-08-27T07:31:13.464Z,1009.27
2017-08-27T07:31:53.938Z,1009.25
2017-08-27T07:32:34.394Z,1009.26
2017-08-27T07:33:14.853Z,1009.27
2017-08-27T07:33:55.339Z,1009.27
2017-08-27T07:34:35.782Z,1009.32
2017-08-27T07:35:16.197Z,1009.29
2017-08-27T07:35:56.545Z,1009.32
2017-08-27T07:36:36.978Z,1009.33
2017-08-27T07:37:17.411Z,1009.32
2017-08-27T07:37:57.837Z,1009.36
2017-08-27T07:38:38.178Z,1009.36
2017-08-27T07:39:18.577Z,1009.37
2017-08-27T07:39:59.044Z,1009.37
2017-08-27T07:40:39.463Z,1009.34
2017-08-27T07:41:19.938Z,1009.36
2017-08-27T07:42:00.363Z,1009.37
2017-08-27T07:42:40.715Z,1009.33
2017-08-27T07:43:21.230Z,1009.37
2017-08-27T07:44:01.675Z,1009.35
2017-08-27T07:44:42.046Z,1009.37
2017-08-27T07:45:22.512Z,1009.37
2017-08-27T07:46:02.953Z,1009.39
2017-08-27T07:46:43.391Z,1009.39
2017-08-27T07:47:24.074Z,1009.44
2017-08-27T07:48:04.440Z,1009.46
2017-08-27T07:48:44.898Z,1009.45
2017-08-27T07:49:25.260Z,1009.49
2017-08-27T07:50:05.690Z,1009.49
2017-08-27T07:50:46.057Z,1009.47
2017-08-27T07:51:26.534Z,1009.5
2017-08-27T07:52:06.901Z,1009.48
2017-08-27T07:52:47.340Z,1009.51
2017-08-27T07:53:27.745Z,1009.5
2017-08-27T07:54:08.082Z,1009.51
2017-08-27T07:54:48.580Z,1009.49
2017-08-27T07:55:29.121Z,1009.49
2017-08-27T07:56:09.493Z,1009.45
2017-08-27T07:56:49.966Z,1009.44
2017-08-27T07:57:30.319Z,1009.42
2017-08-27T07:58:10.773Z,1009.4
2017-08-27T07:58:51.208Z,1009.4
2017-08-27T07:59:31.637Z,1009.39
2017-08-27T08:00:12.065Z,1009.4
2017-08-27T08:00:52.486Z,1009.38
2017-08-27T08:01:32.933Z,1009.43
2017-08-27T08:02:13.316Z,1009.45
2017-08-27T08:03:00.621Z,1009.46
2017-08-27T08:03:40.977Z,1009.45
2017-08-27T08:04:21.586Z,1009.5
2017-08-27T08:05:02.023Z,1009.51
2017-08-27T08:05:42.365Z,1009.53
2017-08-27T08:06:22.751Z,1009.52
2017-08-27T08:07:03.192Z,1009.52
2017-08-27T08:07:43.644Z,1009.48
2017-08-27T08:08:23.973Z,1009.5
2017-08-27T08:09:04.400Z,1009.51
2017-08-27T08:09:44.889Z,1009.51
2017-08-27T08:10:25.322Z,1009.54
2017-08-27T08:11:05.750Z,1009.55
2017-08-27T08:11:46.165Z,1009.54
2017-08-27T08:12:27.008Z,1009.52
2017-08-27T08:13:07.419Z,1009.56
2017-08-27T08:13:47.875Z,1009.57
2017-08-27T08:14:28.226Z,1009.56
2017-08-27T08:15:08.719Z,1009.58
2017-08-27T08:15:49.291Z,1009.62
2017-08-27T08:16:29.687Z,1009.66
2017-08-27T08:17:10.118Z,1009.7
2017-08-27T08:17:50.581Z,1009.69
2017-08-27T08:18:30.941Z,1009.71
2017-08-27T08:19:11.402Z,1009.71
2017-08-27T08:19:52.003Z,1009.67
2017-08-27T08:20:32.356Z,1009.62
2017-08-27T08:21:12.893Z,1009.67
2017-08-27T08:21:53.307Z,1009.65
2017-08-27T08:22:33.681Z,1009.64
2017-08-27T08:23:14.016Z,1009.68
2017-08-27T08:23:54.419Z,1009.69
2017-08-27T08:24:34.856Z,1009.69
2017-08-27T08:25:15.301Z,1009.68
2017-08-27T08:25:55.777Z,1009.69
2017-08-27T08:26:36.259Z,1009.66